Time;durP1;ratioP1;P1;durP2;ratioP2;P2;SDS_P1;SDS_P2;PMS_P1;PMS_P2;Temp;Humidity;BMP_temperature;BMP_pressure;BME280_temperature;BME280_humidity;BME280_pressure;Samples;Min_cycle;Max_cycle;Signal;HPM_P1;HPM_P2
2022/08/09 00:01:21;;;;;;;4.97;3.30;;;18.90;17.60;;;;;;5027640;28;20486;-71
2022/08/09 00:03:48;;;;;;;7.73;3.80;;;18.90;17.80;;;;;;5028234;28;20498;-70
2022/08/09 00:06:15;;;;;;;8.07;3.87;;;18.90;17.60;;;;;;5021791;28;20527;-70
2022/08/09 00:08:42;;;;;;;5.50;3.50;;;18.90;17.80;;;;;;5025276;28;20486;-71
2022/08/09 00:11:08;;;;;;;8.10;3.50;;;18.90;17.70;;;;;;5025227;28;20461;-70
2022/08/09 00:13:37;;;;;;;8.77;3.30;;;18.80;17.80;;;;;;5028115;28;20846;-71
2022/08/09 00:16:04;;;;;;;5.80;3.20;;;18.80;17.90;;;;;;5022275;28;20530;-71
2022/08/09 00:18:31;;;;;;;5.43;3.70;;;18.70;18.30;;;;;;5024836;28;20765;-71
2022/08/09 00:20:58;;;;;;;7.83;3.67;;;18.70;18.10;;;;;;5016627;28;22313;-71
2022/08/09 00:23:25;;;;;;;8.47;4.27;;;18.70;18.30;;;;;;5028364;28;20455;-70
2022/08/09 00:25:52;;;;;;;5.50;3.80;;;18.60;18.20;;;;;;5023547;28;20463;-71
2022/08/09 00:28:19;;;;;;;5.70;3.73;;;18.60;18.50;;;;;;5024812;28;20486;-70
2022/08/09 00:30:47;;;;;;;5.87;4.23;;;18.60;18.90;;;;;;5024284;28;20474;-71
2022/08/09 00:33:13;;;;;;;6.17;3.80;;;18.50;18.80;;;;;;5028230;28;20454;-71
2022/08/09 00:35:40;;;;;;;8.00;4.30;;;18.50;18.80;;;;;;5027692;28;20474;-70
2022/08/09 00:38:08;;;;;;;6.90;3.73;;;18.50;18.80;;;;;;5028056;28;20474;-69
2022/08/09 00:40:35;;;;;;;5.40;3.90;;;18.50;18.90;;;;;;5025432;28;20463;-72
2022/08/09 00:43:02;;;;;;;6.27;3.87;;;18.50;18.90;;;;;;5027994;28;20458;-71
2022/08/09 00:45:28;;;;;;;7.00;3.87;;;18.40;18.90;;;;;;5028324;28;20455;-70
2022/08/09 00:47:57;;;;;;;7.07;4.67;;;18.40;19.10;;;;;;5028026;28;20487;-70
2022/08/09 00:50:24;;;;;;;6.77;4.00;;;18.40;19.20;;;;;;5026378;28;20469;-70
2022/08/09 00:52:52;;;;;;;6.03;4.40;;;18.30;19.20;;;;;;5027642;28;20714;-70
2022/08/09 00:55:19;;;;;;;7.43;4.30;;;18.30;19.10;;;;;;5020189;28;20536;-70
2022/08/09 00:57:46;;;;;;;6.33;4.30;;;18.30;19.20;;;;;;5012540;28;20478;-72
2022/08/09 01:00:14;;;;;;;6.33;4.40;;;18.30;19.60;;;;;;5027651;28;20470;-72
2022/08/09 01:02:48;;;;;;;6.83;4.13;;;18.30;19.60;;;;;;5027645;28;20458;-69
2022/08/09 01:05:22;;;;;;;8.50;4.50;;;18.20;19.80;;;;;;5025068;28;20461;-72
2022/08/09 01:07:57;;;;;;;9.43;4.40;;;18.20;19.60;;;;;;5020136;28;20481;-70
2022/08/09 01:10:41;;;;;;;10.03;4.83;;;18.20;19.60;;;;;;5019666;28;20466;-71
2022/08/09 01:13:13;;;;;;;11.77;4.97;;;18.10;19.90;;;;;;5024344;28;20462;-70
2022/08/09 01:15:45;;;;;;;6.37;4.63;;;18.10;20.10;;;;;;5030441;28;20605;-70
2022/08/09 01:18:16;;;;;;;6.27;3.90;;;18.00;20.00;;;;;;5024141;28;20480;-70
2022/08/09 01:20:49;;;;;;;10.23;5.60;;;18.00;20.40;;;;;;5024356;28;20981;-70
2022/08/09 01:23:31;;;;;;;7.23;4.73;;;18.00;20.10;;;;;;5024867;28;20459;-71
2022/08/09 01:26:13;;;;;;;6.00;3.67;;;18.00;20.10;;;;;;5024881;28;20462;-70
2022/08/09 01:28:47;;;;;;;6.63;4.40;;;17.90;20.20;;;;;;5031122;28;20485;-70
2022/08/09 01:31:21;;;;;;;7.17;4.40;;;17.90;20.60;;;;;;5024191;28;20458;-71
2022/08/09 01:33:49;;;;;;;6.40;4.67;;;17.90;20.60;;;;;;5027715;28;20459;-71
2022/08/09 01:36:20;;;;;;;6.93;4.77;;;17.90;20.50;;;;;;5031271;28;20479;-70
2022/08/09 01:38:49;;;;;;;7.83;4.47;;;17.80;20.60;;;;;;5024596;28;20475;-70
2022/08/09 01:41:18;;;;;;;7.77;5.57;;;17.80;20.60;;;;;;5029970;28;20847;-72
2022/08/09 01:43:49;;;;;;;6.60;4.50;;;17.80;20.50;;;;;;5023217;28;20454;-72
2022/08/09 01:46:17;;;;;;;10.27;5.60;;;17.80;20.40;;;;;;5031079;28;20451;-71
2022/08/09 01:48:46;;;;;;;7.23;5.50;;;17.80;20.80;;;;;;5014859;28;20494;-71
2022/08/09 01:51:15;;;;;;;6.90;4.60;;;17.70;20.80;;;;;;5030051;28;20463;-71
2022/08/09 01:53:43;;;;;;;7.63;4.63;;;17.70;20.90;;;;;;5030766;28;20486;-70
2022/08/09 01:56:12;;;;;;;8.03;4.83;;;17.70;21.10;;;;;;5025370;28;20849;-71
2022/08/09 01:58:40;;;;;;;6.40;4.87;;;17.60;21.20;;;;;;5022509;28;21287;-71
2022/08/09 02:01:09;;;;;;;8.23;5.83;;;17.60;21.40;;;;;;5029393;28;20550;-71
2022/08/09 02:03:37;;;;;;;6.73;4.50;;;17.50;21.50;;;;;;5030398;28;20463;-70
2022/08/09 02:06:06;;;;;;;6.97;5.20;;;17.50;21.20;;;;;;5030322;28;20447;-70
2022/08/09 02:08:35;;;;;;;9.73;5.87;;;17.50;21.30;;;;;;5030750;28;20482;-73
2022/08/09 02:11:04;;;;;;;9.70;6.20;;;17.50;21.30;;;;;;5028923;28;20557;-72
2022/08/09 02:13:31;;;;;;;12.03;5.43;;;17.40;21.70;;;;;;5028028;28;20452;-72
2022/08/09 02:16:00;;;;;;;8.73;5.13;;;17.40;21.70;;;;;;5027009;28;21128;-69
2022/08/09 02:18:30;;;;;;;8.43;5.00;;;17.40;21.70;;;;;;5028168;28;20494;-70
2022/08/09 02:21:02;;;;;;;7.87;5.47;;;17.30;21.70;;;;;;5030525;28;20459;-71
2022/08/09 02:23:36;;;;;;;6.43;4.90;;;17.30;22.00;;;;;;5030462;28;20479;-71
2022/08/09 02:26:05;;;;;;;9.47;5.00;;;17.30;22.40;;;;;;5029496;28;20467;-71
2022/08/09 02:28:35;;;;;;;8.20;5.33;;;17.20;22.30;;;;;;5029203;28;20483;-71
2022/08/09 02:31:05;;;;;;;6.80;5.00;;;17.20;22.60;;;;;;5029234;28;20908;-72
2022/08/09 02:33:36;;;;;;;7.80;5.23;;;17.20;22.70;;;;;;5027005;28;20455;-70
2022/08/09 02:36:06;;;;;;;6.77;5.37;;;17.20;22.70;;;;;;5029303;28;20542;-72
2022/08/09 02:38:37;;;;;;;8.83;5.10;;;17.10;22.70;;;;;;5026900;28;20486;-71
2022/08/09 02:41:08;;;;;;;7.90;5.57;;;17.10;22.70;;;;;;5029766;28;20458;-71
2022/08/09 02:43:37;;;;;;;7.57;6.20;;;17.10;22.70;;;;;;5029782;28;20455;-71
2022/08/09 02:46:08;;;;;;;7.30;5.20;;;17.10;22.90;;;;;;5028165;28;20455;-70
2022/08/09 02:48:39;;;;;;;9.63;6.20;;;17.00;23.00;;;;;;5028685;28;20489;-70
2022/08/09 02:51:10;;;;;;;8.27;5.87;;;17.00;23.30;;;;;;5023840;28;20451;-69
2022/08/09 02:53:41;;;;;;;8.43;5.97;;;17.00;23.50;;;;;;5029406;28;20461;-70
2022/08/09 02:56:10;;;;;;;9.07;6.13;;;16.90;23.80;;;;;;5028249;28;21152;-71
2022/08/09 02:58:39;;;;;;;9.03;5.97;;;16.90;23.80;;;;;;5029481;28;20486;-72
2022/08/09 03:01:07;;;;;;;9.50;5.97;;;16.80;24.10;;;;;;5016520;28;20555;-71
2022/08/09 03:03:36;;;;;;;8.17;6.53;;;16.80;24.40;;;;;;5026115;28;20460;-71
2022/08/09 03:06:06;;;;;;;8.67;6.87;;;16.70;24.80;;;;;;5028010;28;20954;-72
2022/08/09 03:08:34;;;;;;;9.37;6.30;;;16.70;24.90;;;;;;5026700;28;20479;-73
2022/08/09 03:11:02;;;;;;;8.23;6.73;;;16.70;25.10;;;;;;5023708;28;20464;-71
2022/08/09 03:13:30;;;;;;;7.73;6.37;;;16.70;25.30;;;;;;5018828;28;20475;-71
2022/08/09 03:15:58;;;;;;;10.53;6.83;;;16.70;25.10;;;;;;5026833;28;20479;-71
2022/08/09 03:18:25;;;;;;;9.40;6.97;;;16.70;25.60;;;;;;5025953;28;21029;-70
2022/08/09 03:20:55;;;;;;;8.30;7.00;;;16.60;25.90;;;;;;5020612;28;20462;-71
2022/08/09 03:23:22;;;;;;;11.17;7.90;;;16.60;25.90;;;;;;5025545;28;20462;-72
2022/08/09 03:25:49;;;;;;;12.03;7.50;;;16.60;25.70;;;;;;5017421;28;20471;-70
2022/08/09 03:28:18;;;;;;;7.93;6.70;;;16.60;26.00;;;;;;5024261;28;20479;-72
2022/08/09 03:30:45;;;;;;;8.47;7.37;;;16.60;25.70;;;;;;5027342;28;20838;-71
2022/08/09 03:33:13;;;;;;;11.03;7.43;;;16.60;26.00;;;;;;5029291;28;20459;-71
2022/08/09 03:35:41;;;;;;;9.60;7.40;;;16.60;25.70;;;;;;5015094;28;20998;-70
2022/08/09 03:38:09;;;;;;;8.80;7.37;;;16.60;25.90;;;;;;5026441;28;20474;-71
2022/08/09 03:40:36;;;;;;;11.60;7.37;;;16.50;25.90;;;;;;5026237;28;20459;-71
2022/08/09 03:43:02;;;;;;;8.70;7.40;;;16.50;26.10;;;;;;5028658;28;20451;-71
2022/08/09 03:45:29;;;;;;;8.50;7.43;;;16.50;26.30;;;;;;5027289;28;20466;-71
2022/08/09 03:47:56;;;;;;;9.00;6.63;;;16.40;26.60;;;;;;5021680;28;20566;-71
2022/08/09 03:50:24;;;;;;;7.60;6.80;;;16.40;26.80;;;;;;5028569;28;20474;-71
2022/08/09 03:52:52;;;;;;;10.30;6.50;;;16.40;27.10;;;;;;5024514;28;20456;-71
2022/08/09 03:55:21;;;;;;;8.90;7.20;;;16.30;27.20;;;;;;5025056;28;20455;-71
2022/08/09 03:57:49;;;;;;;7.27;6.13;;;16.30;27.50;;;;;;5026904;28;20489;-72
2022/08/09 04:00:16;;;;;;;7.03;6.03;;;16.30;27.20;;;;;;5028731;28;20462;-67
2022/08/09 04:02:44;;;;;;;8.30;7.43;;;16.20;27.50;;;;;;5017399;28;20466;-65
2022/08/09 04:05:12;;;;;;;8.23;7.37;;;16.20;27.80;;;;;;5021547;28;20733;-70
2022/08/09 04:07:39;;;;;;;8.13;7.30;;;16.20;27.60;;;;;;5023306;28;20613;-70
2022/08/09 04:10:07;;;;;;;8.43;6.60;;;16.20;27.70;;;;;;5031210;28;20462;-69
2022/08/09 04:12:44;;;;;;;8.43;7.17;;;16.20;27.80;;;;;;5032266;28;20470;-69
2022/08/09 04:15:12;;;;;;;9.27;7.43;;;16.20;28.30;;;;;;5028854;28;20461;-70
2022/08/09 04:17:40;;;;;;;9.20;8.13;;;16.20;28.50;;;;;;5028925;28;20487;-69
2022/08/09 04:20:08;;;;;;;9.87;8.13;;;16.20;28.60;;;;;;5030107;28;20454;-71
2022/08/09 04:22:35;;;;;;;9.33;8.33;;;16.10;28.60;;;;;;5025252;28;20459;-69
2022/08/09 04:25:02;;;;;;;10.07;8.20;;;16.20;28.40;;;;;;5023605;28;20455;-68
2022/08/09 04:27:29;;;;;;;9.40;8.00;;;16.20;28.50;;;;;;5024782;28;20459;-69
2022/08/09 04:29:58;;;;;;;8.37;7.57;;;16.20;28.30;;;;;;5036508;28;20459;-69
2022/08/09 04:32:27;;;;;;;11.03;8.20;;;16.20;28.50;;;;;;5025762;28;20450;-69
2022/08/09 04:34:55;;;;;;;9.00;7.50;;;16.20;28.40;;;;;;5030542;28;20455;-62
2022/08/09 04:37:21;;;;;;;8.77;7.47;;;16.30;28.30;;;;;;5023389;28;20481;-62
2022/08/09 04:39:48;;;;;;;7.47;6.43;;;16.20;28.10;;;;;;5029813;28;20460;-62
2022/08/09 04:42:15;;;;;;;10.30;7.00;;;16.30;27.90;;;;;;5032917;28;20453;-61
2022/08/09 04:44:42;;;;;;;8.27;6.30;;;16.30;27.80;;;;;;5033246;28;20458;-63
2022/08/09 04:47:10;;;;;;;8.43;7.33;;;16.40;27.60;;;;;;5038752;28;20461;-61
2022/08/09 04:49:37;;;;;;;8.47;6.30;;;16.40;27.50;;;;;;5034072;28;20574;-61
2022/08/09 04:52:04;;;;;;;8.40;6.30;;;16.40;27.20;;;;;;5026646;28;20722;-68
2022/08/09 04:54:31;;;;;;;10.50;6.77;;;16.50;27.10;;;;;;5032515;28;20584;-72
2022/08/09 04:56:58;;;;;;;7.90;6.63;;;16.50;27.00;;;;;;5028260;28;20475;-71
2022/08/09 04:59:25;;;;;;;11.87;6.70;;;16.60;26.70;;;;;;5040782;28;20492;-70
2022/08/09 05:01:52;;;;;;;13.67;7.60;;;16.70;26.50;;;;;;5036764;28;20454;-70
2022/08/09 05:04:20;;;;;;;11.00;7.03;;;16.80;26.30;;;;;;5035330;28;20949;-70
2022/08/09 05:06:47;;;;;;;7.37;6.10;;;16.90;26.20;;;;;;5037986;28;20462;-70
2022/08/09 05:09:13;;;;;;;7.00;5.87;;;16.90;26.00;;;;;;5034600;28;20485;-70
2022/08/09 05:11:40;;;;;;;7.10;6.37;;;17.10;25.60;;;;;;5033247;28;20954;-70
2022/08/09 05:14:07;;;;;;;7.27;6.13;;;17.30;25.30;;;;;;5028785;28;20545;-70
2022/08/09 05:16:34;;;;;;;8.40;6.20;;;17.90;24.10;;;;;;5027264;28;20474;-74
2022/08/09 05:19:01;;;;;;;8.93;6.10;;;19.20;21.30;;;;;;5035367;28;20540;-74
2022/08/09 05:21:29;;;;;;;8.50;5.50;;;20.80;17.70;;;;;;5035299;28;20462;-72
2022/08/09 05:23:56;;;;;;;7.13;5.53;;;22.30;14.40;;;;;;5033032;28;20464;-72
2022/08/09 05:26:23;;;;;;;8.00;5.20;;;23.70;11.40;;;;;;5033109;28;20463;-70
2022/08/09 05:28:50;;;;;;;6.50;5.40;;;25.10;9.10;;;;;;5038561;28;20486;-72
2022/08/09 05:31:17;;;;;;;6.03;4.23;;;26.30;6.70;;;;;;5034749;28;20462;-72
2022/08/09 05:33:43;;;;;;;11.73;4.80;;;27.40;5.00;;;;;;5034173;28;20485;-71
2022/08/09 05:36:10;;;;;;;7.90;4.27;;;28.50;3.10;;;;;;5035450;28;20833;-72
2022/08/09 05:38:38;;;;;;;8.63;5.00;;;29.60;1.50;;;;;;5025380;28;20858;-71
2022/08/09 05:41:05;;;;;;;9.30;3.97;;;30.70;1.00;;;;;;5029858;28;20470;-77
2022/08/09 05:43:34;;;;;;;5.73;3.93;;;31.70;1.00;;;;;;5028334;28;20967;-77
2022/08/09 05:46:01;;;;;;;5.63;3.87;;;32.50;1.00;;;;;;5024968;28;20550;-74
2022/08/09 05:48:28;;;;;;;5.30;3.90;;;33.40;1.00;;;;;;5033569;28;21285;-74
2022/08/09 05:50:55;;;;;;;5.50;3.47;;;34.30;1.00;;;;;;5031521;28;20462;-74
2022/08/09 05:53:22;;;;;;;6.50;3.70;;;35.20;1.00;;;;;;5030257;28;20465;-73
2022/08/09 05:55:50;;;;;;;6.43;3.63;;;36.00;1.00;;;;;;5030657;28;20463;-72
2022/08/09 05:58:17;;;;;;;5.00;3.80;;;36.90;1.00;;;;;;5026504;28;20486;-72
2022/08/09 06:00:44;;;;;;;5.70;3.70;;;37.70;1.00;;;;;;5026477;28;20463;-75
2022/08/09 06:03:11;;;;;;;4.43;2.87;;;38.30;1.00;;;;;;5031370;28;20467;-74
2022/08/09 06:05:38;;;;;;;4.60;3.17;;;38.80;1.00;;;;;;5026681;28;20466;-69
2022/08/09 06:08:05;;;;;;;8.10;3.10;;;39.20;1.00;;;;;;5028141;28;20597;-70
2022/08/09 06:10:37;;;;;;;5.90;3.30;;;40.00;1.00;;;;;;5031336;28;20458;-70
2022/08/09 06:13:06;;;;;;;6.30;2.60;;;40.60;1.00;;;;;;5035585;28;20472;-69
2022/08/09 06:15:33;;;;;;;4.60;2.97;;;41.30;1.00;;;;;;5030449;28;20455;-69
2022/08/09 06:17:59;;;;;;;6.30;2.57;;;41.90;1.00;;;;;;5032903;28;20491;-68
2022/08/09 06:20:27;;;;;;;5.20;2.87;;;42.50;1.00;;;;;;5029320;28;20470;-67
2022/08/09 06:22:53;;;;;;;5.40;3.07;;;43.10;1.00;;;;;;5032027;28;20459;-68
2022/08/09 06:25:20;;;;;;;4.03;2.53;;;43.70;1.00;;;;;;5033921;28;20458;-68
2022/08/09 06:27:47;;;;;;;6.70;2.60;;;44.10;1.00;;;;;;5032284;28;20478;-67
2022/08/09 06:30:16;;;;;;;5.23;2.83;;;44.60;1.00;;;;;;5032560;28;20485;-69
2022/08/09 06:32:44;;;;;;;5.07;3.30;;;45.00;1.00;;;;;;5030186;28;20478;-68
2022/08/09 06:35:10;;;;;;;4.10;2.60;;;45.40;1.00;;;;;;5026852;28;20465;-67
2022/08/09 06:37:38;;;;;;;4.70;3.03;;;45.70;1.00;;;;;;5033042;28;21026;-67
2022/08/09 06:40:06;;;;;;;5.27;2.80;;;46.20;1.00;;;;;;5034044;28;20470;-67
2022/08/09 06:42:32;;;;;;;4.33;2.83;;;46.70;1.00;;;;;;5034586;28;20462;-67
2022/08/09 06:44:59;;;;;;;6.03;2.43;;;47.00;1.00;;;;;;5029086;28;20460;-67
2022/08/09 06:47:27;;;;;;;4.40;2.80;;;47.30;1.00;;;;;;5030001;28;20456;-67
2022/08/09 06:49:54;;;;;;;4.77;2.60;;;47.70;1.00;;;;;;5027384;28;20470;-67
2022/08/09 06:52:21;;;;;;;7.60;2.57;;;48.10;1.00;;;;;;5032730;28;20497;-68
2022/08/09 06:54:48;;;;;;;7.63;2.70;;;48.30;1.00;;;;;;5030471;28;20826;-67
2022/08/09 06:57:15;;;;;;;5.40;2.63;;;48.70;1.00;;;;;;5036162;28;20973;-67
2022/08/09 06:59:41;;;;;;;5.87;2.30;;;49.00;1.00;;;;;;5030937;28;20475;-67
2022/08/09 07:02:08;;;;;;;4.10;2.27;;;49.10;1.00;;;;;;5033784;28;20458;-68
2022/08/09 07:04:36;;;;;;;3.57;2.30;;;49.30;1.00;;;;;;5028900;28;20486;-67
2022/08/09 07:07:03;;;;;;;4.80;2.40;;;49.50;1.00;;;;;;5031052;28;20460;-69
2022/08/09 07:09:30;;;;;;;7.13;2.33;;;49.80;1.00;;;;;;5032939;28;20540;-71
2022/08/09 07:11:57;;;;;;;5.10;2.53;;;50.10;1.00;;;;;;5025884;28;20464;-70
2022/08/09 07:14:23;;;;;;;4.63;2.50;;;50.50;1.00;;;;;;5029963;28;20463;-67
2022/08/09 07:16:50;;;;;;;3.60;2.33;;;50.90;1.00;;;;;;5030920;28;20462;-68
2022/08/09 07:19:18;;;;;;;4.30;2.13;;;51.30;1.00;;;;;;5029144;28;21175;-68
2022/08/09 07:21:47;;;;;;;4.53;2.30;;;51.70;1.00;;;;;;5024456;28;20459;-70
2022/08/09 07:24:14;;;;;;;4.07;2.30;;;51.90;1.00;;;;;;5029240;28;20458;-67
2022/08/09 07:26:41;;;;;;;5.73;2.13;;;52.10;1.00;;;;;;5027177;28;20454;-70
2022/08/09 07:29:08;;;;;;;4.07;1.90;;;52.10;1.00;;;;;;5029584;28;20474;-69
2022/08/09 07:31:35;;;;;;;4.90;2.20;;;52.20;1.00;;;;;;5029640;28;20453;-70
2022/08/09 07:34:02;;;;;;;3.17;1.87;;;51.90;1.00;;;;;;5032851;28;20857;-68
2022/08/09 07:36:31;;;;;;;3.97;2.20;;;51.80;1.00;;;;;;5029658;28;20466;-68
2022/08/09 07:38:59;;;;;;;3.70;1.80;;;52.40;1.00;;;;;;5033176;28;20482;-70
2022/08/09 07:41:26;;;;;;;2.90;1.47;;;52.90;1.00;;;;;;5030151;28;20449;-70
2022/08/09 07:43:52;;;;;;;4.07;2.10;;;53.00;1.00;;;;;;5032255;28;20463;-68
2022/08/09 07:46:19;;;;;;;4.87;2.40;;;53.00;1.00;;;;;;5033125;28;20462;-68
2022/08/09 07:48:47;;;;;;;5.77;2.20;;;53.50;1.00;;;;;;5030192;23;20483;-68
2022/08/09 07:51:14;;;;;;;5.67;1.90;;;53.40;1.00;;;;;;5023133;28;20485;-74
2022/08/09 07:53:40;;;;;;;3.50;2.03;;;52.80;1.00;;;;;;5033236;28;20596;-71
2022/08/09 07:56:09;;;;;;;5.43;1.70;;;52.40;1.00;;;;;;5031465;28;20469;-73
2022/08/09 07:58:35;;;;;;;7.03;1.97;;;52.00;1.00;;;;;;5018017;28;20483;-71
2022/08/09 08:01:02;;;;;;;5.53;1.73;;;51.60;1.00;;;;;;5001246;28;20455;-72
2022/08/09 08:03:29;;;;;;;5.03;2.07;;;51.10;1.00;;;;;;5006959;28;20484;-73
2022/08/09 08:05:56;;;;;;;4.50;1.67;;;51.20;1.00;;;;;;5004850;28;20459;-72
2022/08/09 08:08:23;;;;;;;4.57;1.70;;;51.70;1.00;;;;;;5000393;28;20476;-71
2022/08/09 08:10:50;;;;;;;4.63;1.70;;;52.20;1.00;;;;;;5001974;28;20467;-74
2022/08/09 08:13:19;;;;;;;6.03;2.43;;;52.90;1.00;;;;;;5006503;28;20458;-74
2022/08/09 08:15:45;;;;;;;4.87;1.90;;;53.20;1.00;;;;;;5000498;28;20455;-72
2022/08/09 08:18:12;;;;;;;3.90;1.57;;;52.70;1.00;;;;;;5003120;28;20496;-70
2022/08/09 08:20:39;;;;;;;3.97;1.63;;;52.60;1.00;;;;;;5000805;28;20463;-74
2022/08/09 08:23:06;;;;;;;3.87;1.70;;;53.00;1.00;;;;;;5007714;28;20464;-74
2022/08/09 08:25:33;;;;;;;4.10;1.73;;;53.80;1.00;;;;;;4994028;28;20464;-72
2022/08/09 08:28:00;;;;;;;5.50;1.70;;;53.80;1.00;;;;;;5008320;28;20494;-73
2022/08/09 08:30:28;;;;;;;3.33;1.60;;;54.60;1.00;;;;;;5006896;28;21042;-74
2022/08/09 08:32:55;;;;;;;3.70;1.83;;;55.30;1.00;;;;;;4998266;28;20552;-76
2022/08/09 08:35:22;;;;;;;6.07;1.50;;;55.70;1.00;;;;;;5005600;28;20464;-76
2022/08/09 08:37:50;;;;;;;3.27;1.63;;;55.60;1.00;;;;;;5000985;28;20467;-75
2022/08/09 08:40:18;;;;;;;4.93;1.83;;;55.30;1.00;;;;;;5001181;28;20470;-70
2022/08/09 08:42:44;;;;;;;3.93;1.70;;;55.30;1.00;;;;;;5002539;28;20917;-71
2022/08/09 08:45:13;;;;;;;3.67;1.60;;;55.90;1.00;;;;;;5004457;28;20467;-73
2022/08/09 08:47:43;;;;;;;4.00;1.70;;;56.30;1.00;;;;;;5005668;28;21742;-72
2022/08/09 08:50:15;;;;;;;3.50;1.60;;;56.60;1.00;;;;;;5001264;28;20459;-71
2022/08/09 08:52:42;;;;;;;3.30;1.40;;;56.80;1.00;;;;;;5002836;28;20463;-73
2022/08/09 08:55:10;;;;;;;3.20;1.60;;;56.80;1.00;;;;;;5003965;28;20470;-73
2022/08/09 08:57:37;;;;;;;3.47;1.27;;;56.90;1.00;;;;;;5005876;28;20209;-72
2022/08/09 09:00:06;;;;;;;4.80;1.40;;;55.50;1.00;;;;;;5001726;28;20462;-72
2022/08/09 09:02:33;;;;;;;3.33;1.37;;;54.00;1.00;;;;;;5002187;28;21146;-71
2022/08/09 09:05:01;;;;;;;4.53;1.47;;;52.80;1.00;;;;;;5004236;28;20460;-70
2022/08/09 09:07:29;;;;;;;3.80;1.27;;;52.30;1.00;;;;;;5004362;28;20471;-71
2022/08/09 09:09:57;;;;;;;4.80;1.77;;;52.10;1.00;;;;;;5002431;28;21046;-69
2022/08/09 09:12:26;;;;;;;2.87;1.40;;;52.10;1.00;;;;;;5007887;28;21056;-70
2022/08/09 09:14:54;;;;;;;4.03;1.30;;;52.00;1.00;;;;;;5006163;28;20463;-70
2022/08/09 09:17:21;;;;;;;5.37;1.47;;;52.50;1.00;;;;;;5000084;28;20455;-70
2022/08/09 09:19:47;;;;;;;5.50;1.60;;;53.00;1.00;;;;;;5003420;28;20607;-70
2022/08/09 09:22:18;;;;;;;3.87;1.53;;;52.80;1.00;;;;;;5000778;28;20475;-71
2022/08/09 09:24:46;;;;;;;4.00;1.50;;;53.10;1.00;;;;;;5001061;28;20871;-70
2022/08/09 09:27:16;;;;;;;3.67;1.33;;;52.90;1.00;;;;;;5009752;28;20455;-70
2022/08/09 09:29:44;;;;;;;4.20;1.40;;;52.80;1.00;;;;;;5001485;28;20480;-74
2022/08/09 09:32:12;;;;;;;4.13;1.53;;;53.10;1.00;;;;;;5004539;28;20466;-72
2022/08/09 09:34:41;;;;;;;5.63;1.40;;;53.60;1.00;;;;;;5006907;28;21233;-72
2022/08/09 09:37:07;;;;;;;4.30;1.60;;;54.00;1.00;;;;;;5005336;28;21002;-72
2022/08/09 09:39:36;;;;;;;4.00;1.77;;;53.80;1.00;;;;;;5007638;28;20491;-74
2022/08/09 09:42:05;;;;;;;3.13;1.53;;;54.10;1.00;;;;;;5006402;28;20467;-76
2022/08/09 09:44:34;;;;;;;4.50;1.53;;;54.70;1.00;;;;;;5001049;28;20510;-76
2022/08/09 09:47:09;;;;;;;4.10;1.50;;;55.20;1.00;;;;;;5006036;28;20467;-68
2022/08/09 09:49:37;;;;;;;3.53;1.40;;;54.80;1.00;;;;;;5006900;28;20878;-67
2022/08/09 09:52:07;;;;;;;4.70;1.90;;;54.80;1.00;;;;;;5007726;28;20459;-73
2022/08/09 09:54:38;;;;;;;3.37;1.67;;;52.60;1.00;;;;;;5005312;28;20515;-76
2022/08/09 09:57:16;;;;;;;4.00;1.70;;;50.30;1.00;;;;;;5000906;28;20461;-77
2022/08/09 09:59:44;;;;;;;3.90;1.73;;;50.30;1.00;;;;;;5008220;28;20484;-78
2022/08/09 10:02:11;;;;;;;3.90;1.70;;;50.40;1.00;;;;;;5004742;28;20460;-76
2022/08/09 10:04:39;;;;;;;4.17;1.83;;;50.30;1.00;;;;;;5006897;28;20463;-73
2022/08/09 10:07:20;;;;;;;5.00;1.60;;;50.60;1.00;;;;;;5000402;28;21266;-77
2022/08/09 10:09:49;;;;;;;3.83;1.63;;;51.20;1.00;;;;;;5002270;28;20483;-77
2022/08/09 10:12:25;;;;;;;4.40;1.57;;;51.90;1.00;;;;;;4998258;28;20456;-78
2022/08/09 10:14:52;;;;;;;4.03;1.60;;;52.30;1.00;;;;;;5004201;28;21019;-77
2022/08/09 10:17:20;;;;;;;4.07;1.77;;;52.30;1.00;;;;;;5003753;28;20499;-77
2022/08/09 10:19:47;;;;;;;3.20;1.40;;;52.30;1.00;;;;;;5002992;28;21184;-78
2022/08/09 10:22:14;;;;;;;6.47;1.83;;;51.00;1.00;;;;;;5004451;28;20474;-78
2022/08/09 10:24:41;;;;;;;5.63;1.50;;;48.40;1.00;;;;;;5006234;28;21624;-79
2022/08/09 10:27:11;;;;;;;4.10;1.87;;;46.30;1.00;;;;;;5008318;28;20500;-77
2022/08/09 10:29:38;;;;;;;4.60;1.50;;;44.00;1.00;;;;;;5008337;28;20484;-71
2022/08/09 10:32:05;;;;;;;5.00;2.10;;;41.90;1.00;;;;;;5003545;28;20471;-71
2022/08/09 10:34:33;;;;;;;3.30;1.40;;;40.10;1.00;;;;;;5006598;28;20464;-72
2022/08/09 10:37:00;;;;;;;4.60;1.83;;;38.50;1.00;;;;;;5005903;28;21026;-74
2022/08/09 10:39:28;;;;;;;4.00;1.80;;;37.20;1.00;;;;;;5007581;28;20481;-74
2022/08/09 10:41:54;;;;;;;5.60;1.60;;;36.10;1.00;;;;;;5003063;28;20456;-75
2022/08/09 10:44:29;;;;;;;4.27;2.00;;;35.20;1.00;;;;;;5003641;28;20469;-75
2022/08/09 10:47:22;;;;;;;4.50;1.50;;;34.20;1.00;;;;;;5002920;28;20464;-76
2022/08/09 10:50:03;;;;;;;7.00;1.93;;;33.50;1.00;;;;;;5002255;28;20484;-74
2022/08/09 10:53:03;;;;;;;7.87;2.03;;;32.70;1.00;;;;;;5006686;28;20459;-74
2022/08/09 10:55:31;;;;;;;4.10;1.73;;;32.20;1.00;;;;;;5003527;28;21255;-75
2022/08/09 10:57:58;;;;;;;4.83;1.63;;;31.50;1.00;;;;;;5006345;28;20995;-75
2022/08/09 11:00:40;;;;;;;4.43;1.80;;;31.10;1.00;;;;;;5005023;28;20535;-76
2022/08/09 11:03:21;;;;;;;5.73;1.53;;;30.50;1.00;;;;;;5015005;28;20455;-73
2022/08/09 11:06:24;;;;;;;4.30;1.60;;;30.10;1.00;;;;;;5006612;28;20452;-76
2022/08/09 11:08:50;;;;;;;9.67;2.10;;;30.00;1.00;;;;;;5005146;28;20558;-74
2022/08/09 11:11:17;;;;;;;4.50;1.60;;;29.70;1.00;;;;;;5001673;28;20456;-75
2022/08/09 11:13:45;;;;;;;3.90;2.00;;;29.50;1.00;;;;;;5004394;28;20460;-75
2022/08/09 11:16:33;;;;;;;4.43;2.17;;;29.30;1.00;;;;;;5008165;28;20583;-75
2022/08/09 11:18:59;;;;;;;3.80;1.83;;;29.10;1.00;;;;;;5006374;28;20581;-76
2022/08/09 11:21:51;;;;;;;4.67;1.87;;;28.80;1.00;;;;;;5004650;28;20466;-76
2022/08/09 11:24:18;;;;;;;4.50;2.03;;;28.70;1.00;;;;;;5003432;28;20458;-72
2022/08/09 11:26:47;;;;;;;7.20;1.87;;;28.60;1.00;;;;;;5003676;28;20482;-73
2022/08/09 11:29:47;;;;;;;6.80;1.90;;;28.60;1.00;;;;;;5006576;28;20840;-73
2022/08/09 11:32:40;;;;;;;4.93;1.73;;;28.50;1.00;;;;;;5004858;28;20460;-71
2022/08/09 11:35:12;;;;;;;5.10;1.83;;;28.30;1.00;;;;;;5003616;28;20467;-72
2022/08/09 11:37:40;;;;;;;4.20;1.47;;;28.30;1.00;;;;;;5006483;28;21042;-75
2022/08/09 11:40:09;;;;;;;4.30;1.80;;;28.30;1.00;;;;;;5002409;28;20480;-76
2022/08/09 11:42:46;;;;;;;4.77;2.07;;;28.40;1.00;;;;;;4999232;28;21271;-77
2022/08/09 11:45:24;;;;;;;4.53;1.57;;;28.30;1.00;;;;;;5007382;28;20447;-75
2022/08/09 11:47:56;;;;;;;3.90;1.50;;;28.20;1.00;;;;;;5007280;28;21141;-75
2022/08/09 11:50:24;;;;;;;4.30;1.73;;;28.10;1.00;;;;;;5000779;28;20458;-73
2022/08/09 11:53:22;;;;;;;5.17;1.57;;;28.00;1.00;;;;;;5006103;28;20463;-76
2022/08/09 11:55:50;;;;;;;4.30;1.70;;;28.00;1.00;;;;;;5002763;28;20464;-77
2022/08/09 11:58:43;;;;;;;4.43;1.83;;;28.00;1.00;;;;;;5002868;28;20511;-76
2022/08/09 12:01:11;;;;;;;4.50;2.00;;;28.00;1.00;;;;;;5006181;28;20560;-73
2022/08/09 12:03:39;;;;;;;3.87;1.87;;;28.00;1.00;;;;;;5007920;28;20948;-69
2022/08/09 12:06:15;;;;;;;4.10;2.10;;;28.00;1.00;;;;;;4998591;28;20464;-70
2022/08/09 12:08:47;;;;;;;3.83;1.57;;;28.00;1.00;;;;;;5010153;28;20569;-72
2022/08/09 12:11:15;;;;;;;7.53;2.10;;;28.00;1.00;;;;;;5007964;28;20858;-71
2022/08/09 12:13:45;;;;;;;4.20;1.67;;;27.90;1.00;;;;;;5010666;28;20987;-75
2022/08/09 12:16:14;;;;;;;4.40;2.00;;;27.80;1.00;;;;;;5003271;28;20800;-74
2022/08/09 12:18:46;;;;;;;4.20;1.63;;;27.70;1.00;;;;;;5007530;28;20530;-75
2022/08/09 12:21:13;;;;;;;5.67;1.90;;;27.70;1.00;;;;;;4994191;28;20456;-74
2022/08/09 12:23:44;;;;;;;7.00;1.73;;;27.70;1.00;;;;;;5007478;28;20459;-72
2022/08/09 12:26:11;;;;;;;4.33;1.90;;;27.60;1.00;;;;;;5004907;28;20472;-75
2022/08/09 12:28:40;;;;;;;4.43;1.90;;;27.60;1.00;;;;;;5007880;28;20482;-74
2022/08/09 12:31:19;;;;;;;4.47;1.70;;;27.60;1.00;;;;;;5006984;28;20460;-69
2022/08/09 12:33:47;;;;;;;4.63;1.43;;;27.60;1.00;;;;;;5006250;28;20460;-74
2022/08/09 12:36:14;;;;;;;5.23;1.90;;;27.70;1.00;;;;;;5004045;28;20480;-74
2022/08/09 12:38:41;;;;;;;4.27;1.60;;;27.70;1.00;;;;;;5002730;28;20487;-72
2022/08/09 12:41:08;;;;;;;4.57;1.83;;;27.70;1.00;;;;;;5000919;28;20472;-71
2022/08/09 12:43:35;;;;;;;4.70;1.77;;;27.70;1.00;;;;;;5007851;28;20455;-69
2022/08/09 12:46:03;;;;;;;5.23;1.83;;;27.70;1.00;;;;;;5001911;28;20475;-68
2022/08/09 12:48:31;;;;;;;5.10;2.10;;;27.70;1.00;;;;;;5003074;28;20499;-68
2022/08/09 12:51:00;;;;;;;4.70;1.63;;;27.60;1.00;;;;;;5008892;28;20489;-68
2022/08/09 12:53:29;;;;;;;6.53;2.10;;;27.60;1.00;;;;;;5003813;28;20468;-68
2022/08/09 12:56:14;;;;;;;6.70;1.70;;;27.60;1.00;;;;;;5005397;28;20470;-68
2022/08/09 12:58:43;;;;;;;8.17;1.93;;;27.60;1.00;;;;;;5004546;28;20546;-69
2022/08/09 13:01:21;;;;;;;4.70;1.70;;;27.60;1.00;;;;;;4998842;28;20515;-67
2022/08/09 13:03:57;;;;;;;5.00;1.47;;;27.50;1.00;;;;;;5000358;28;20465;-68